アムステルダム/スキポール の空港の天気 - METARとTAF

スキポール空港(アムステルダム) ( EHAM / AMS ) - オランダ アムステルダム
飛行場実況気象(Metar)
観測時間08/11 07:55 CEST (08/11 05:55 UTC)
風向・風速東北東 5m/s
視程10km以上
天気現象
なし
気温23℃
湿度69%
気圧1015hPa
METAREHAM 110555Z 07009KT CAVOK 23/17 Q1015 NOSIG
過去の天気等 Google飛行場航空写真 Wunderground天気予報

過去48時間のMETAR

飛行場予報(TAF)
発表時間: 8/11 06:31 CEST (8/11 04:31 UTC)
予報対象時間: 11日8時 CEST ~ 12日14時 CEST
風向・風速東 4m/s
視程10km以上
なし
11日17時 CEST ~ 11日21時 CEST に 確率 30% で一時的に
視程4000m
天気現象雷雨
全天の4割程度の積乱雲 雲底高度 1830m
TAF EHAM 110431Z 1106/1212 08008KT CAVOK
PROB30 TEMPO 1115/1119 4000 TSRA SCT060CB